Wetterdaten: aktuell Dienstag, 19.10.2021 21:49
Datum Zeit Temp Htte Temp 10 cm Temp. Terr FeuchteHtte Luftdruck Niederschlag Wind Richtung Richtung Sonnenschein Helligkeit T Niederschl Taupunkt Windchill
19.10.2021 21:49 10,0 C 6,5 C 8,7 C 92 % 1018 hPa 0,0 l/m 0,0 km/h (0 Bft) O-SO 115 0 min 0 lux 0 min 8,8 C 10,0 C
19.10.2021 20:49 10,8 C 7,6 C 9,6 C 92 % 1018 hPa 0,0 l/m 0,0 km/h (0 Bft) O-SO 115 0 min 0 lux 0 min 9,6 C 10,8 C
19.10.2021 19:49 11,5 C 7,6 C 10,4 C 92 % 1018 hPa 0,0 l/m 0,0 km/h (0 Bft) O-SO 115 0 min 0 lux 0 min 10,2 C 11,5 C
19.10.2021 18:49 12,0 C 7,6 C 11,5 C 93 % 1018 hPa 0,0 l/m 0,0 km/h (0 Bft) O-SO 115 0 min 0 lux 0 min 10,9 C 12,0 C
19.10.2021 17:49 12,0 C 8,0 C 11,8 C 93 % 1019 hPa 0,0 l/m 0,0 km/h (0 Bft) O-SO 115 0 min 747 lux 0 min 10,9 C 12,0 C
19.10.2021 16:49 11,5 C 8,0 C 11,6 C 93 % 1019 hPa 0,0 l/m 0,0 km/h (0 Bft) O-SO 115 0 min 8,18 klux 0 min 10,4 C 11,5 C
19.10.2021 15:49 11,1 C 7,6 C 11,0 C 93 % 1019 hPa 0,0 l/m 0,0 km/h (0 Bft) S-SO 160 0 min 4,83 klux 0 min 10,0 C 11,1 C
19.10.2021 14:49 10,3 C 7,6 C 10,4 C 93 % 1020 hPa 0,4 l/m 4,8 km/h (1 Bft) S-SO 160 0 min 7,53 klux 5 min 9,2 C 10,3 C
19.10.2021 13:49 9,2 C 6,7 C 9,4 C 93 % 1020 hPa 0,4 l/m 0,0 km/h (0 Bft) O-SO 120 0 min 5,04 klux 5 min 8,1 C 9,2 C
19.10.2021 12:49 8,3 C 6,6 C 8,5 C 92 % 1021 hPa 1,8 l/m 7,6 km/h (2 Bft) O-SO 120 0 min 7,89 klux 25 min 7,1 C 7,1 C
19.10.2021 11:49 7,8 C 5,8 C 7,6 C 91 % 1021 hPa 1,8 l/m 5,2 km/h (1 Bft) O-SO 115 0 min 4,38 klux 25 min 6,4 C 7,2 C
19.10.2021 10:49 7,1 C 5,7 C 7,2 C 91 % 1021 hPa 1,4 l/m 0,3 km/h (0 Bft) N-NW 330 0 min 8,67 klux 20 min 5,7 C 7,1 C
19.10.2021 09:49 6,3 C 5,0 C 6,3 C 90 % 1022 hPa 0,7 l/m 0,0 km/h (0 Bft) N-NW 345 0 min 6,16 klux 10 min 4,8 C 6,3 C
19.10.2021 08:49 5,6 C 4,6 C 5,4 C 89 % 1021 hPa 0,4 l/m 0,0 km/h (0 Bft) N-NW 345 0 min 3,39 klux 5 min 3,9 C 5,6 C
19.10.2021 07:49 5,2 C 3,9 C 4,9 C 87 % 1021 hPa 0,0 l/m 0,0 km/h (0 Bft) N 350 0 min 128 lux 0 min 3,2 C 5,2 C
19.10.2021 06:49 4,8 C 3,5 C 4,6 C 85 % 1022 hPa 0,0 l/m 0,0 km/h (0 Bft) N-NW 345 0 min 0 lux 0 min 2,5 C 4,8 C
19.10.2021 05:49 4,8 C 3,4 C 4,4 C 85 % 1022 hPa 0,0 l/m 0,0 km/h (0 Bft) N-NW 345 0 min 0 lux 0 min 2,5 C 4,8 C
19.10.2021 04:49 4,8 C 3,5 C 4,2 C 85 % 1022 hPa 0,0 l/m 0,0 km/h (0 Bft) N-NW 345 0 min 0 lux 0 min 2,5 C 4,8 C
19.10.2021 03:49 5,0 C 2,9 C 3,9 C 84 % 1022 hPa 0,0 l/m 0,0 km/h (0 Bft) N-NW 345 0 min 0 lux 0 min 2,5 C 5,0 C
19.10.2021 02:49 5,7 C 3,0 C 4,2 C 84 % 1022 hPa 0,0 l/m 0,0 km/h (0 Bft) N-NW 345 0 min 0 lux 0 min 3,2 C 5,7 C
19.10.2021 01:49 5,8 C 3,3 C 4,8 C 84 % 1022 hPa 0,0 l/m 0,0 km/h (0 Bft) N 350 0 min 0 lux 0 min 3,3 C 5,8 C
19.10.2021 00:49 7,0 C 4,2 C 5,4 C 83 % 1023 hPa 0,0 l/m 0,0 km/h (0 Bft) N-NW 345 0 min 0 lux 0 min 4,3 C 7,0 C
19.10.2021 00:04 7,0 C 4,2 C 5,7 C 83 % 1023 hPa 0,0 l/m 0,0 km/h (0 Bft) N-NW 345 0 min 0 lux 0 min 4,3 C 7,0 C
_ Min-Zeit 04:49 03:09 03:14 00:04 17:59 - 00:04 - - - - - 04:49 04:49
Minimum _ 4,8 C 2,7 C 3,9 C 83 % 1018 hPa - 0,0 km/h (0 Bft) - - - - - 2,5 C 4,8 C
_ Max-Zeit 18:24 16:49 17:24 13:09 00:04 07:54 11:09 - - 00:04 15:09 07:54 18:24 18:24
Maximum _ 12,1 C 8,0 C 11,8 C 93 % 1023 hPa 0,4 l/m 9,1 km/h
SO (2 Bft)
- - 0 min 10,3 klux 5 min 11,0 C 12,1 C
Durchschnitt _ 8,0 C 5,5 C 7,5 C 89 % 1020 hPa #6,9 l/m 0,5 km/h (0 Bft) N-NW - #0 min. 2,38 klux #1:35 h 6,3 C 7,9 C